createdAt,value
2023-03-06T00:00:40.505Z,6.12
2023-03-06T00:03:07.406Z,5.94
2023-03-06T00:05:33.990Z,5.92
2023-03-06T00:08:00.469Z,6.17
2023-03-06T00:10:29.445Z,5.99
2023-03-06T00:12:58.985Z,6.53
2023-03-06T00:15:29.309Z,6.52
2023-03-06T00:17:56.594Z,6.43
2023-03-06T00:20:24.002Z,6.14
2023-03-06T00:22:50.531Z,5.94
2023-03-06T00:25:19.652Z,5.73
2023-03-06T00:27:46.681Z,5.98
2023-03-06T00:30:16.264Z,5.80
2023-03-06T00:32:43.753Z,6.33
2023-03-06T00:35:11.146Z,6.16
2023-03-06T00:37:37.935Z,6.20
2023-03-06T00:40:06.329Z,5.94
2023-03-06T00:42:32.962Z,5.82
2023-03-06T00:44:59.519Z,6.20
2023-03-06T00:47:26.121Z,6.12
2023-03-06T00:49:52.824Z,5.65
2023-03-06T00:52:19.549Z,5.88
2023-03-06T00:54:46.112Z,5.22
2023-03-06T00:57:12.729Z,5.58
2023-03-06T00:59:39.286Z,5.49
2023-03-06T01:02:05.912Z,5.66
2023-03-06T01:04:32.880Z,6.25
2023-03-06T01:06:59.667Z,5.68
2023-03-06T01:09:26.481Z,5.52
2023-03-06T01:11:53.189Z,5.77
2023-03-06T01:14:20.158Z,5.56
2023-03-06T01:16:47.640Z,6.08
2023-03-06T01:19:14.879Z,6.38
2023-03-06T01:21:41.456Z,6.19
2023-03-06T01:24:08.451Z,6.01
2023-03-06T01:26:35.082Z,6.35
2023-03-06T01:29:01.907Z,6.46
2023-03-06T01:31:28.513Z,6.75
2023-03-06T01:33:55.268Z,6.60
2023-03-06T01:36:21.917Z,6.05
2023-03-06T01:38:48.485Z,5.88
2023-03-06T01:41:16.046Z,6.07
2023-03-06T01:43:45.225Z,6.37
2023-03-06T01:46:17.710Z,6.35
2023-03-06T01:48:44.941Z,6.19
2023-03-06T01:51:12.352Z,5.85
2023-03-06T01:53:39.968Z,5.71
2023-03-06T01:56:07.140Z,6.25
2023-03-06T01:58:34.034Z,6.04
2023-03-06T02:01:00.593Z,6.25
2023-03-06T02:03:31.184Z,5.60
2023-03-06T02:05:58.941Z,5.69
2023-03-06T02:08:26.852Z,5.86
2023-03-06T02:11:05.872Z,5.86
2023-03-06T02:13:32.649Z,5.92
2023-03-06T02:15:59.472Z,5.99
2023-03-06T02:18:26.241Z,6.33
2023-03-06T02:20:55.240Z,5.99
2023-03-06T02:23:48.402Z,5.38
2023-03-06T02:26:15.534Z,5.61
2023-03-06T02:28:44.473Z,5.36
2023-03-06T02:31:22.176Z,5.85
2023-03-06T02:34:24.170Z,6.35
2023-03-06T02:36:53.489Z,5.54
2023-03-06T02:39:22.655Z,5.78
2023-03-06T02:41:49.271Z,5.85
2023-03-06T02:44:15.892Z,5.65
2023-03-06T02:46:42.706Z,5.97
2023-03-06T02:49:09.356Z,6.11
2023-03-06T02:51:36.192Z,6.82
2023-03-06T02:54:02.745Z,6.68
2023-03-06T02:56:29.421Z,6.32
2023-03-06T02:58:56.136Z,6.05
2023-03-06T03:01:23.086Z,6.26
2023-03-06T03:03:49.921Z,6.54
2023-03-06T03:06:16.582Z,6.52
2023-03-06T03:08:43.598Z,6.02
2023-03-06T03:11:10.474Z,6.52
2023-03-06T03:13:37.670Z,6.35
2023-03-06T03:16:07.191Z,5.43
2023-03-06T03:18:34.238Z,5.79
2023-03-06T03:21:00.805Z,5.92
2023-03-06T03:23:27.819Z,5.88
2023-03-06T03:25:54.451Z,5.24
2023-03-06T03:28:21.108Z,5.76
2023-03-06T03:30:47.717Z,5.30
2023-03-06T03:33:14.262Z,5.52
2023-03-06T03:35:41.232Z,4.86
2023-03-06T03:38:07.936Z,4.52
2023-03-06T03:40:34.996Z,4.71
2023-03-06T03:43:01.645Z,4.31
2023-03-06T03:45:28.455Z,4.64
2023-03-06T03:47:54.986Z,5.07
2023-03-06T03:50:21.526Z,4.75
2023-03-06T03:52:48.080Z,4.63
2023-03-06T03:55:15.086Z,4.49
2023-03-06T03:57:43.149Z,4.67
2023-03-06T04:00:14.830Z,4.88
2023-03-06T04:02:42.713Z,5.04
2023-03-06T04:05:10.500Z,4.71
2023-03-06T04:07:37.593Z,5.25
2023-03-06T04:10:05.376Z,5.33
2023-03-06T04:12:32.025Z,4.87
2023-03-06T04:14:59.110Z,5.32
2023-03-06T04:17:26.260Z,5.14
2023-03-06T04:19:52.886Z,5.16
2023-03-06T04:22:19.798Z,4.60
2023-03-06T04:24:49.602Z,5.03
2023-03-06T04:27:16.168Z,5.20
2023-03-06T04:29:44.642Z,5.25
2023-03-06T04:32:11.213Z,5.62
2023-03-06T04:34:38.289Z,5.62
2023-03-06T04:37:05.286Z,5.66
2023-03-06T04:39:31.954Z,5.36
2023-03-06T04:41:58.613Z,5.77
2023-03-06T04:44:25.253Z,6.07
2023-03-06T04:46:51.921Z,6.14
2023-03-06T04:49:18.427Z,6.04
2023-03-06T04:51:45.140Z,5.84
2023-03-06T04:54:12.049Z,5.89
2023-03-06T04:56:39.034Z,5.88
2023-03-06T04:59:05.578Z,5.72
2023-03-06T05:01:32.625Z,5.52
2023-03-06T05:03:59.147Z,5.16
2023-03-06T05:06:26.335Z,5.53
2023-03-06T05:08:53.005Z,5.97
2023-03-06T05:11:19.581Z,5.89
2023-03-06T05:13:46.147Z,5.01
2023-03-06T05:16:12.848Z,4.89
2023-03-06T05:18:39.705Z,4.70
2023-03-06T05:21:06.704Z,5.18
2023-03-06T05:23:38.565Z,4.76
2023-03-06T05:26:11.332Z,4.87
2023-03-06T05:28:38.515Z,4.80
2023-03-06T05:31:05.719Z,4.54
2023-03-06T05:33:33.654Z,5.27
2023-03-06T05:36:00.235Z,5.26
2023-03-06T05:38:27.316Z,5.20
2023-03-06T05:40:54.088Z,4.95
2023-03-06T05:43:22.206Z,4.77
2023-03-06T05:45:50.528Z,4.50
2023-03-06T05:48:17.130Z,4.76
2023-03-06T05:50:43.849Z,4.52
2023-03-06T05:53:10.676Z,4.17
2023-03-06T05:55:37.603Z,4.09
2023-03-06T05:58:04.156Z,3.70
2023-03-06T06:00:30.993Z,3.93
2023-03-06T06:03:00.606Z,4.31
2023-03-06T06:05:27.315Z,4.20
2023-03-06T06:07:53.906Z,4.13
2023-03-06T06:10:20.618Z,4.04
2023-03-06T06:12:47.187Z,4.19
2023-03-06T06:15:15.352Z,4.22
2023-03-06T06:17:42.544Z,4.40
2023-03-06T06:20:09.698Z,4.41
2023-03-06T06:22:38.010Z,4.18
2023-03-06T06:25:07.243Z,3.79
2023-03-06T06:27:33.804Z,4.24
2023-03-06T06:30:00.404Z,4.22
2023-03-06T06:32:27.001Z,4.14
2023-03-06T06:34:53.943Z,4.15
2023-03-06T06:37:20.735Z,4.12
2023-03-06T06:39:47.738Z,4.42
2023-03-06T06:42:31.475Z,4.54
2023-03-06T06:45:00.855Z,4.73
2023-03-06T06:47:27.469Z,4.67
2023-03-06T06:49:55.641Z,4.43
2023-03-06T06:52:23.470Z,4.96
2023-03-06T06:54:50.308Z,5.30
2023-03-06T06:57:17.350Z,5.48
2023-03-06T06:59:43.975Z,5.53
2023-03-06T07:02:12.740Z,5.67
2023-03-06T07:04:52.394Z,5.85
2023-03-06T07:07:24.751Z,5.58
2023-03-06T07:09:52.075Z,4.99
2023-03-06T07:12:18.798Z,5.60
2023-03-06T07:14:45.423Z,5.47
2023-03-06T07:17:12.026Z,5.47
2023-03-06T07:19:39.587Z,4.76
2023-03-06T07:22:07.625Z,5.11
2023-03-06T07:24:34.420Z,5.14
2023-03-06T07:27:00.938Z,5.23
2023-03-06T07:29:27.535Z,5.24
2023-03-06T07:31:54.094Z,4.81
2023-03-06T07:34:20.674Z,5.25
2023-03-06T07:36:47.242Z,4.76
2023-03-06T07:39:13.847Z,4.76
2023-03-06T07:41:40.414Z,4.92
2023-03-06T07:44:07.044Z,5.15
2023-03-06T07:46:33.657Z,5.48
2023-03-06T07:49:00.367Z,5.27
2023-03-06T07:51:27.244Z,4.99
2023-03-06T07:53:54.071Z,5.47
2023-03-06T07:56:20.874Z,4.80
2023-03-06T07:58:47.694Z,4.25
2023-03-06T08:01:19.876Z,5.53
2023-03-06T08:03:47.090Z,5.69
2023-03-06T08:06:35.102Z,5.27
2023-03-06T08:09:02.194Z,5.26
2023-03-06T08:11:30.474Z,5.38
2023-03-06T08:13:58.029Z,5.54
2023-03-06T08:16:26.697Z,6.51
2023-03-06T08:18:54.401Z,5.62
2023-03-06T08:21:23.675Z,5.83
2023-03-06T08:23:50.637Z,5.27
2023-03-06T08:26:23.978Z,5.40
2023-03-06T08:28:54.560Z,5.41
2023-03-06T08:31:27.315Z,5.57
2023-03-06T08:33:54.911Z,5.23
2023-03-06T08:36:21.940Z,5.18
2023-03-06T08:38:48.465Z,5.37
2023-03-06T08:41:15.247Z,5.37
2023-03-06T08:43:41.877Z,6.00
2023-03-06T08:46:09.632Z,5.24
2023-03-06T08:48:36.235Z,5.43
2023-03-06T08:51:02.768Z,5.14
2023-03-06T08:53:42.188Z,5.44
2023-03-06T08:56:20.854Z,5.77
2023-03-06T08:58:48.505Z,5.60
2023-03-06T09:01:21.116Z,5.58
2023-03-06T09:03:48.597Z,5.42
2023-03-06T09:06:15.255Z,5.01
2023-03-06T09:08:43.870Z,4.90
2023-03-06T09:11:11.881Z,5.01
2023-03-06T09:13:38.692Z,4.70
2023-03-06T09:16:05.558Z,4.65
2023-03-06T09:18:32.053Z,5.35
2023-03-06T09:20:58.560Z,5.39
2023-03-06T09:23:25.095Z,4.82
2023-03-06T09:25:55.897Z,4.90
2023-03-06T09:28:23.071Z,4.68
2023-03-06T09:30:50.324Z,4.83
2023-03-06T09:33:17.438Z,4.81
2023-03-06T09:35:55.828Z,4.94
2023-03-06T09:38:25.316Z,5.00
2023-03-06T09:40:57.766Z,4.74
2023-03-06T09:43:29.385Z,5.13
2023-03-06T09:45:57.655Z,5.01
2023-03-06T09:49:13.961Z,4.97
2023-03-06T09:52:07.518Z,5.51
2023-03-06T09:54:44.038Z,5.49
2023-03-06T09:57:22.263Z,5.12
2023-03-06T09:59:51.820Z,4.99
2023-03-06T10:02:36.716Z,5.40
2023-03-06T10:05:06.704Z,5.03
2023-03-06T10:07:47.222Z,4.92
2023-03-06T10:10:19.928Z,5.68
2023-03-06T10:13:03.269Z,5.90
2023-03-06T10:15:36.024Z,5.45
2023-03-06T10:18:03.869Z,4.99
2023-03-06T10:20:54.904Z,5.18
2023-03-06T10:23:37.314Z,5.53
2023-03-06T10:26:17.138Z,4.95
2023-03-06T10:29:21.001Z,4.92
2023-03-06T10:31:54.813Z,5.21
2023-03-06T10:34:23.493Z,5.37
2023-03-06T10:36:50.568Z,5.30
2023-03-06T10:39:22.098Z,5.49
2023-03-06T10:41:49.334Z,5.44
2023-03-06T10:44:15.952Z,5.91
2023-03-06T10:46:44.753Z,6.18
2023-03-06T10:49:35.652Z,6.36
2023-03-06T10:52:14.324Z,6.24
2023-03-06T10:54:43.225Z,6.16
2023-03-06T10:57:20.240Z,6.49
2023-03-06T10:59:53.720Z,6.47
2023-03-06T11:02:29.382Z,6.38
2023-03-06T11:04:57.049Z,6.87
2023-03-06T11:07:34.581Z,6.53
2023-03-06T11:10:05.579Z,5.49
2023-03-06T11:12:36.602Z,5.76
2023-03-06T11:15:17.413Z,6.03
2023-03-06T11:18:23.596Z,5.61
2023-03-06T11:20:55.033Z,5.54
2023-03-06T11:23:36.753Z,6.20
2023-03-06T11:26:15.348Z,5.81
2023-03-06T11:29:03.654Z,6.02
2023-03-06T11:32:02.526Z,6.34
2023-03-06T11:34:51.180Z,6.67
2023-03-06T11:37:25.972Z,6.53
2023-03-06T11:39:59.444Z,5.71
2023-03-06T11:42:34.584Z,5.25
2023-03-06T11:45:26.029Z,5.56
2023-03-06T11:48:08.081Z,5.65
2023-03-06T11:50:37.667Z,5.79
2023-03-06T11:53:05.965Z,6.10
2023-03-06T11:55:35.458Z,6.06
2023-03-06T11:58:38.899Z,6.36
2023-03-06T12:01:25.824Z,6.94
2023-03-06T12:04:17.142Z,6.43
2023-03-06T12:07:01.897Z,6.51
2023-03-06T12:09:47.369Z,7.40
2023-03-06T12:12:37.732Z,6.73
2023-03-06T12:15:04.208Z,7.06
2023-03-06T12:17:56.067Z,7.07
2023-03-06T12:20:44.106Z,8.34
2023-03-06T12:23:16.808Z,10.61
2023-03-06T12:25:49.014Z,12.97
2023-03-06T12:28:24.705Z,12.55
2023-03-06T12:30:58.452Z,12.30
2023-03-06T12:33:43.252Z,10.04
2023-03-06T12:36:28.868Z,9.97
2023-03-06T12:39:34.033Z,9.64
2023-03-06T12:42:26.540Z,8.48
2023-03-06T12:44:58.690Z,8.36
2023-03-06T12:47:27.973Z,9.33
2023-03-06T12:50:38.152Z,9.75
2023-03-06T12:53:07.524Z,9.33
2023-03-06T12:55:42.571Z,9.69
2023-03-06T12:58:31.038Z,8.77
2023-03-06T13:01:20.004Z,8.65
2023-03-06T13:03:58.755Z,8.46
2023-03-06T13:06:36.632Z,7.79
2023-03-06T13:09:12.209Z,7.85
2023-03-06T13:12:03.771Z,7.74
2023-03-06T13:14:34.355Z,7.76
2023-03-06T13:17:20.524Z,8.55
2023-03-06T13:19:48.209Z,8.36
2023-03-06T13:22:35.303Z,8.00
2023-03-06T13:25:30.669Z,8.68
2023-03-06T13:27:57.140Z,8.79
2023-03-06T13:30:24.166Z,9.25
2023-03-06T13:32:52.836Z,9.08
2023-03-06T13:35:34.576Z,9.35
2023-03-06T13:38:01.296Z,8.97
2023-03-06T13:40:36.431Z,9.03
2023-03-06T13:43:08.959Z,9.05
2023-03-06T13:45:43.306Z,9.16
2023-03-06T13:48:43.131Z,9.39
2023-03-06T13:51:19.736Z,9.27
2023-03-06T13:54:17.447Z,9.83
2023-03-06T13:57:11.577Z,10.03
2023-03-06T14:00:08.199Z,10.22
2023-03-06T14:02:54.752Z,10.95
2023-03-06T14:05:22.141Z,10.63
2023-03-06T14:08:02.981Z,11.61
2023-03-06T14:10:31.938Z,11.74
2023-03-06T14:13:03.308Z,11.57
2023-03-06T14:15:37.476Z,11.75
2023-03-06T14:18:07.355Z,11.53
2023-03-06T14:20:39.869Z,11.37
2023-03-06T14:23:21.653Z,11.22
2023-03-06T14:25:54.559Z,10.71
2023-03-06T14:28:23.975Z,10.52
2023-03-06T14:30:52.299Z,10.27
2023-03-06T14:33:37.321Z,9.06
2023-03-06T14:36:08.195Z,9.74
2023-03-06T14:38:38.382Z,9.82
2023-03-06T14:41:06.036Z,10.00
2023-03-06T14:43:32.913Z,10.46
2023-03-06T14:46:06.423Z,11.26
2023-03-06T14:48:45.353Z,11.70
2023-03-06T14:51:16.341Z,11.09
2023-03-06T14:53:44.730Z,11.57
2023-03-06T14:56:16.692Z,11.04
2023-03-06T14:58:59.803Z,10.07
2023-03-06T15:01:35.384Z,10.90
2023-03-06T15:04:02.652Z,9.38
2023-03-06T15:06:41.271Z,9.02
2023-03-06T15:09:24.482Z,9.10
2023-03-06T15:11:55.200Z,9.27
2023-03-06T15:14:35.946Z,9.18
2023-03-06T15:17:18.110Z,9.44
2023-03-06T15:19:46.986Z,9.01
2023-03-06T15:22:39.367Z,9.74
2023-03-06T15:25:24.363Z,9.20
2023-03-06T15:28:20.458Z,8.31
2023-03-06T15:31:04.405Z,9.16
2023-03-06T15:33:30.997Z,8.84
2023-03-06T15:36:02.530Z,9.21
2023-03-06T15:38:44.689Z,9.37
2023-03-06T15:41:27.799Z,9.74
2023-03-06T15:43:54.769Z,9.29
2023-03-06T15:46:21.334Z,9.74
2023-03-06T15:48:56.598Z,9.95
2023-03-06T15:51:24.858Z,8.73
2023-03-06T15:53:53.084Z,9.79
2023-03-06T15:56:43.867Z,9.77
2023-03-06T15:59:16.925Z,9.86
2023-03-06T16:01:43.679Z,9.63
2023-03-06T16:04:10.270Z,9.62
2023-03-06T16:06:37.694Z,9.60
2023-03-06T16:09:05.886Z,8.85
2023-03-06T16:11:43.331Z,8.55
2023-03-06T16:14:18.913Z,8.72
2023-03-06T16:16:46.137Z,9.21
2023-03-06T16:19:25.311Z,8.78
2023-03-06T16:21:52.680Z,8.40
2023-03-06T16:24:19.379Z,8.32
2023-03-06T16:26:47.916Z,8.60
2023-03-06T16:29:18.953Z,9.02
2023-03-06T16:31:45.593Z,8.68
2023-03-06T16:34:12.114Z,8.89
2023-03-06T16:36:38.870Z,8.42
2023-03-06T16:39:06.517Z,8.65
2023-03-06T16:41:33.104Z,8.30
2023-03-06T16:43:59.746Z,8.34
2023-03-06T16:46:33.318Z,8.35
2023-03-06T16:49:02.649Z,7.88
2023-03-06T16:51:29.697Z,7.56
2023-03-06T16:53:56.315Z,7.39
2023-03-06T16:56:22.955Z,7.05
2023-03-06T16:58:49.914Z,7.11
2023-03-06T17:01:18.736Z,7.50
2023-03-06T17:03:45.808Z,7.59
2023-03-06T17:06:23.255Z,7.15
2023-03-06T17:08:50.919Z,6.88
2023-03-06T17:11:17.968Z,7.16
2023-03-06T17:13:44.564Z,6.79
2023-03-06T17:16:16.521Z,6.35
2023-03-06T17:18:44.781Z,6.85
2023-03-06T17:21:12.506Z,6.58
2023-03-06T17:23:39.081Z,6.70
2023-03-06T17:26:07.147Z,7.07
2023-03-06T17:28:37.259Z,6.41
2023-03-06T17:31:14.921Z,6.65
2023-03-06T17:33:41.890Z,6.55
2023-03-06T17:36:09.548Z,7.17
2023-03-06T17:38:36.354Z,6.69
2023-03-06T17:41:05.040Z,6.01
2023-03-06T17:43:32.258Z,6.50
2023-03-06T17:46:12.001Z,6.55
2023-03-06T17:48:39.399Z,6.59
2023-03-06T17:51:06.734Z,6.57
2023-03-06T17:53:33.377Z,7.05
2023-03-06T17:56:00.141Z,6.66
2023-03-06T17:58:27.347Z,7.14
2023-03-06T18:00:54.288Z,6.52
2023-03-06T18:03:21.170Z,6.51
2023-03-06T18:05:47.710Z,6.50
2023-03-06T18:08:14.447Z,6.25
2023-03-06T18:10:41.638Z,6.87
2023-03-06T18:13:10.460Z,6.05
2023-03-06T18:15:40.496Z,6.57
2023-03-06T18:18:08.512Z,7.36
2023-03-06T18:20:40.944Z,6.79
2023-03-06T18:23:07.473Z,6.97
2023-03-06T18:25:34.115Z,7.49
2023-03-06T18:28:00.849Z,6.64
2023-03-06T18:30:27.451Z,6.32
2023-03-06T18:32:54.669Z,6.71
2023-03-06T18:35:21.776Z,6.56
2023-03-06T18:37:48.377Z,6.19
2023-03-06T18:40:15.346Z,6.12
2023-03-06T18:42:42.033Z,5.94
2023-03-06T18:45:09.216Z,6.34
2023-03-06T18:47:35.925Z,6.44
2023-03-06T18:50:05.589Z,6.31
2023-03-06T18:52:33.856Z,6.28
2023-03-06T18:55:00.404Z,6.57
2023-03-06T18:57:29.277Z,6.30
2023-03-06T18:59:56.849Z,6.86
2023-03-06T19:02:23.736Z,6.36
2023-03-06T19:04:50.356Z,6.67
2023-03-06T19:07:17.102Z,6.34
2023-03-06T19:09:44.454Z,6.49
2023-03-06T19:12:11.652Z,6.76
2023-03-06T19:14:38.333Z,6.51
2023-03-06T19:17:04.996Z,6.18
2023-03-06T19:19:31.521Z,5.73
2023-03-06T19:21:58.399Z,5.50
2023-03-06T19:24:25.110Z,5.69
2023-03-06T19:26:52.357Z,6.41
2023-03-06T19:29:18.925Z,6.08
2023-03-06T19:31:45.503Z,6.54
2023-03-06T19:34:12.044Z,5.95
2023-03-06T19:36:40.708Z,5.86
2023-03-06T19:39:08.154Z,6.30
2023-03-06T19:41:35.130Z,6.54
2023-03-06T19:44:03.318Z,6.22
2023-03-06T19:46:30.102Z,6.35
2023-03-06T19:48:59.269Z,6.10
2023-03-06T19:51:26.712Z,5.76
2023-03-06T19:53:53.479Z,5.84
2023-03-06T19:56:22.080Z,6.23
2023-03-06T19:58:49.066Z,5.38
2023-03-06T20:01:18.346Z,5.85
2023-03-06T20:03:45.171Z,6.06
2023-03-06T20:06:15.467Z,5.72
2023-03-06T20:08:42.839Z,5.83
2023-03-06T20:11:20.524Z,5.87
2023-03-06T20:13:48.022Z,5.65
2023-03-06T20:16:15.541Z,5.51
2023-03-06T20:18:42.486Z,6.00
2023-03-06T20:21:09.458Z,5.64
2023-03-06T20:23:36.135Z,5.83
2023-03-06T20:26:05.946Z,5.62
2023-03-06T20:28:33.491Z,5.62
2023-03-06T20:31:06.190Z,5.40
2023-03-06T20:33:32.880Z,5.44
2023-03-06T20:35:59.705Z,5.12
2023-03-06T20:38:26.615Z,5.40
2023-03-06T20:40:57.825Z,5.35
2023-03-06T20:43:24.371Z,4.92
2023-03-06T20:46:02.655Z,4.56
2023-03-06T20:48:29.651Z,5.61
2023-03-06T20:51:04.623Z,5.61
2023-03-06T20:53:31.847Z,5.37
2023-03-06T20:55:58.632Z,4.84
2023-03-06T20:58:28.609Z,5.48
2023-03-06T21:00:55.278Z,4.99
2023-03-06T21:03:22.119Z,5.36
2023-03-06T21:05:48.853Z,5.18
2023-03-06T21:08:16.301Z,5.44
2023-03-06T21:10:45.093Z,5.64
2023-03-06T21:13:11.695Z,5.13
2023-03-06T21:15:39.903Z,5.14
2023-03-06T21:18:06.815Z,5.24
2023-03-06T21:20:34.058Z,4.97
2023-03-06T21:23:01.772Z,5.18
2023-03-06T21:25:29.124Z,4.66
2023-03-06T21:27:56.389Z,4.70
2023-03-06T21:30:23.072Z,4.60
2023-03-06T21:32:51.551Z,4.42
2023-03-06T21:35:19.344Z,4.49
2023-03-06T21:37:46.584Z,4.51
2023-03-06T21:40:14.347Z,4.28
2023-03-06T21:42:41.356Z,4.06
2023-03-06T21:45:08.573Z,4.28
2023-03-06T21:47:38.899Z,4.52
2023-03-06T21:50:07.178Z,4.82
2023-03-06T21:52:33.755Z,4.54
2023-03-06T21:55:00.515Z,4.43
2023-03-06T21:57:27.192Z,4.45
2023-03-06T21:59:53.752Z,4.54
2023-03-06T22:02:20.706Z,4.90
2023-03-06T22:04:52.465Z,4.86
2023-03-06T22:07:20.160Z,4.97
2023-03-06T22:09:47.247Z,4.82
2023-03-06T22:12:13.931Z,4.82
2023-03-06T22:14:41.414Z,4.86
2023-03-06T22:17:07.988Z,4.57
2023-03-06T22:19:34.621Z,4.24
2023-03-06T22:22:01.287Z,4.77
2023-03-06T22:24:28.303Z,4.07
2023-03-06T22:26:55.024Z,4.52
2023-03-06T22:29:21.517Z,4.54
2023-03-06T22:31:48.062Z,4.43
2023-03-06T22:34:14.651Z,4.07
2023-03-06T22:36:41.300Z,4.06
2023-03-06T22:39:07.885Z,4.35
2023-03-06T22:41:34.493Z,3.93
2023-03-06T22:44:02.451Z,4.39
2023-03-06T22:46:30.481Z,4.56
2023-03-06T22:48:57.914Z,4.53
2023-03-06T22:51:25.588Z,4.74
2023-03-06T22:53:52.250Z,4.13
2023-03-06T22:56:20.688Z,4.10
2023-03-06T22:58:47.629Z,4.00
2023-03-06T23:01:15.565Z,4.31
2023-03-06T23:03:44.508Z,4.69
2023-03-06T23:06:15.544Z,4.68
2023-03-06T23:08:42.804Z,4.26
2023-03-06T23:11:15.122Z,4.64
2023-03-06T23:13:44.613Z,4.25
2023-03-06T23:16:11.875Z,4.13
2023-03-06T23:18:39.309Z,4.49
2023-03-06T23:21:11.269Z,4.05
2023-03-06T23:23:38.210Z,3.94
2023-03-06T23:26:09.823Z,3.78
2023-03-06T23:28:36.532Z,4.06
2023-03-06T23:31:15.110Z,4.26
2023-03-06T23:33:41.828Z,4.27
2023-03-06T23:36:11.645Z,3.58
2023-03-06T23:38:38.745Z,3.42
2023-03-06T23:41:07.689Z,3.50
2023-03-06T23:43:34.923Z,3.99
2023-03-06T23:46:01.615Z,3.61
2023-03-06T23:48:29.100Z,4.13
2023-03-06T23:50:56.433Z,4.19
2023-03-06T23:53:23.261Z,4.06
2023-03-06T23:55:50.924Z,4.04
2023-03-06T23:58:20.738Z,3.87
